sensor_id;sensor_type;location;lat;lon;timestamp;pressure;altitude;pressure_sealevel;temperature;humidity
65276;BME280;51875;49.994;14.052;2022-12-18T00:00:52;99800.03;;;-6.93;100.00
65276;BME280;51875;49.994;14.052;2022-12-18T00:02:28;99801.81;;;-6.78;100.00
65276;BME280;51875;49.994;14.052;2022-12-18T00:03:44;99801.72;;;-6.80;100.00
65276;BME280;51875;49.994;14.052;2022-12-18T00:05:02;99802.88;;;-7.02;100.00
65276;BME280;51875;49.994;14.052;2022-12-18T00:06:19;99805.25;;;-6.91;100.00
65276;BME280;51875;49.994;14.052;2022-12-18T00:07:35;99810.72;;;-6.85;100.00
65276;BME280;51875;49.994;14.052;2022-12-18T00:08:52;99810.34;;;-6.91;100.00
65276;BME280;51875;49.994;14.052;2022-12-18T00:10:07;99809.97;;;-6.84;100.00
65276;BME280;51875;49.994;14.052;2022-12-18T00:11:25;99818.16;;;-6.88;100.00
65276;BME280;51875;49.994;14.052;2022-12-18T00:12:41;99818.94;;;-7.16;100.00
65276;BME280;51875;49.994;14.052;2022-12-18T00:13:58;99822.28;;;-7.04;100.00
65276;BME280;51875;49.994;14.052;2022-12-18T00:15:14;99828.84;;;-6.94;100.00
65276;BME280;51875;49.994;14.052;2022-12-18T00:16:29;99827.66;;;-7.13;100.00
65276;BME280;51875;49.994;14.052;2022-12-18T00:17:48;99833.13;;;-6.93;100.00
65276;BME280;51875;49.994;14.052;2022-12-18T00:19:04;99831.38;;;-6.81;100.00
65276;BME280;51875;49.994;14.052;2022-12-18T00:20:20;99835.59;;;-7.08;100.00
65276;BME280;51875;49.994;14.052;2022-12-18T00:21:42;99840.88;;;-7.18;100.00
65276;BME280;51875;49.994;14.052;2022-12-18T00:22:58;99832.22;;;-7.34;100.00
65276;BME280;51875;49.994;14.052;2022-12-18T00:24:13;99834.31;;;-7.15;100.00
65276;BME280;51875;49.994;14.052;2022-12-18T00:25:29;99831.38;;;-7.07;100.00
65276;BME280;51875;49.994;14.052;2022-12-18T00:26:44;99837.75;;;-7.01;100.00
65276;BME280;51875;49.994;14.052;2022-12-18T00:28:00;99841.78;;;-7.04;100.00
65276;BME280;51875;49.994;14.052;2022-12-18T00:29:16;99838.72;;;-7.12;100.00
65276;BME280;51875;49.994;14.052;2022-12-18T00:30:33;99841.03;;;-7.29;100.00
65276;BME280;51875;49.994;14.052;2022-12-18T00:31:48;99844.78;;;-7.24;100.00
65276;BME280;51875;49.994;14.052;2022-12-18T00:33:04;99849.88;;;-7.24;100.00
65276;BME280;51875;49.994;14.052;2022-12-18T00:34:20;99840.97;;;-7.17;100.00
65276;BME280;51875;49.994;14.052;2022-12-18T00:35:35;99841.91;;;-7.42;100.00
65276;BME280;51875;49.994;14.052;2022-12-18T00:36:50;99843.72;;;-7.53;100.00
65276;BME280;51875;49.994;14.052;2022-12-18T00:38:06;99842.13;;;-7.25;100.00
65276;BME280;51875;49.994;14.052;2022-12-18T00:39:22;99840.69;;;-7.08;100.00
65276;BME280;51875;49.994;14.052;2022-12-18T00:40:37;99836.69;;;-7.04;100.00
65276;BME280;51875;49.994;14.052;2022-12-18T00:41:53;99845.38;;;-6.87;100.00
65276;BME280;51875;49.994;14.052;2022-12-18T00:43:27;99848.16;;;-6.84;100.00
65276;BME280;51875;49.994;14.052;2022-12-18T00:44:43;99852.06;;;-6.89;100.00
65276;BME280;51875;49.994;14.052;2022-12-18T00:45:58;99846.66;;;-6.81;100.00
65276;BME280;51875;49.994;14.052;2022-12-18T00:47:14;99853.44;;;-6.95;100.00
65276;BME280;51875;49.994;14.052;2022-12-18T00:48:29;99853.63;;;-6.91;100.00
65276;BME280;51875;49.994;14.052;2022-12-18T00:49:45;99853.00;;;-7.01;100.00
65276;BME280;51875;49.994;14.052;2022-12-18T00:51:01;99853.63;;;-6.91;100.00
65276;BME280;51875;49.994;14.052;2022-12-18T00:52:16;99858.09;;;-7.01;100.00
65276;BME280;51875;49.994;14.052;2022-12-18T00:53:32;99861.09;;;-6.81;100.00
65276;BME280;51875;49.994;14.052;2022-12-18T00:54:47;99863.94;;;-6.63;100.00
65276;BME280;51875;49.994;14.052;2022-12-18T00:56:03;99865.09;;;-6.44;100.00
65276;BME280;51875;49.994;14.052;2022-12-18T00:57:18;99863.63;;;-6.41;100.00
65276;BME280;51875;49.994;14.052;2022-12-18T00:58:34;99862.72;;;-6.28;100.00
65276;BME280;51875;49.994;14.052;2022-12-18T00:59:50;99855.75;;;-6.44;100.00
65276;BME280;51875;49.994;14.052;2022-12-18T01:01:06;99862.13;;;-6.50;100.00
65276;BME280;51875;49.994;14.052;2022-12-18T01:02:21;99871.06;;;-6.57;100.00
65276;BME280;51875;49.994;14.052;2022-12-18T01:03:37;99872.84;;;-6.56;100.00
65276;BME280;51875;49.994;14.052;2022-12-18T01:04:53;99863.69;;;-6.39;100.00
65276;BME280;51875;49.994;14.052;2022-12-18T01:06:11;99868.69;;;-6.14;100.00
65276;BME280;51875;49.994;14.052;2022-12-18T01:07:27;99861.78;;;-6.15;100.00
65276;BME280;51875;49.994;14.052;2022-12-18T01:08:43;99859.56;;;-6.37;100.00
65276;BME280;51875;49.994;14.052;2022-12-18T01:09:58;99865.06;;;-6.31;100.00
65276;BME280;51875;49.994;14.052;2022-12-18T01:11:17;99868.28;;;-6.20;100.00
65276;BME280;51875;49.994;14.052;2022-12-18T01:12:33;99867.19;;;-6.10;100.00
65276;BME280;51875;49.994;14.052;2022-12-18T01:13:49;99867.09;;;-6.12;100.00
65276;BME280;51875;49.994;14.052;2022-12-18T01:15:13;99861.69;;;-6.03;100.00
65276;BME280;51875;49.994;14.052;2022-12-18T01:16:29;99866.16;;;-6.27;100.00
65276;BME280;51875;49.994;14.052;2022-12-18T01:17:44;99868.91;;;-6.38;100.00
65276;BME280;51875;49.994;14.052;2022-12-18T01:19:00;99869.84;;;-6.22;100.00
65276;BME280;51875;49.994;14.052;2022-12-18T01:20:16;99874.81;;;-6.10;100.00
65276;BME280;51875;49.994;14.052;2022-12-18T01:21:31;99874.69;;;-5.98;100.00
65276;BME280;51875;49.994;14.052;2022-12-18T01:22:47;99879.34;;;-6.06;100.00
65276;BME280;51875;49.994;14.052;2022-12-18T01:24:02;99877.91;;;-6.01;100.00
65276;BME280;51875;49.994;14.052;2022-12-18T01:25:18;99876.03;;;-6.18;100.00
65276;BME280;51875;49.994;14.052;2022-12-18T01:26:34;99879.97;;;-6.37;100.00
65276;BME280;51875;49.994;14.052;2022-12-18T01:27:49;99879.09;;;-6.38;100.00
65276;BME280;51875;49.994;14.052;2022-12-18T01:29:04;99876.63;;;-6.36;100.00
65276;BME280;51875;49.994;14.052;2022-12-18T01:30:20;99871.31;;;-6.26;100.00
65276;BME280;51875;49.994;14.052;2022-12-18T01:31:36;99874.53;;;-6.15;100.00
65276;BME280;51875;49.994;14.052;2022-12-18T01:32:51;99875.94;;;-6.20;100.00
65276;BME280;51875;49.994;14.052;2022-12-18T01:34:08;99880.81;;;-6.10;100.00
65276;BME280;51875;49.994;14.052;2022-12-18T01:35:24;99878.47;;;-6.20;100.00
65276;BME280;51875;49.994;14.052;2022-12-18T01:36:40;99876.81;;;-6.06;100.00
65276;BME280;51875;49.994;14.052;2022-12-18T01:37:55;99880.06;;;-5.93;100.00
65276;BME280;51875;49.994;14.052;2022-12-18T01:39:13;99881.66;;;-5.67;100.00
65276;BME280;51875;49.994;14.052;2022-12-18T01:40:29;99883.31;;;-5.68;100.00
65276;BME280;51875;49.994;14.052;2022-12-18T01:41:45;99884.56;;;-5.61;100.00
65276;BME280;51875;49.994;14.052;2022-12-18T01:43:18;99886.00;;;-5.51;100.00
65276;BME280;51875;49.994;14.052;2022-12-18T01:46:10;99877.47;;;-6.08;100.00
65276;BME280;51875;49.994;14.052;2022-12-18T01:47:43;99872.75;;;-6.02;100.00
65276;BME280;51875;49.994;14.052;2022-12-18T01:49:01;99885.81;;;-6.11;100.00
65276;BME280;51875;49.994;14.052;2022-12-18T01:50:20;99881.31;;;-6.15;100.00
65276;BME280;51875;49.994;14.052;2022-12-18T01:51:36;99887.69;;;-6.22;100.00
65276;BME280;51875;49.994;14.052;2022-12-18T01:54:17;99889.44;;;-6.07;100.00
65276;BME280;51875;49.994;14.052;2022-12-18T01:55:43;99889.75;;;-6.16;100.00
65276;BME280;51875;49.994;14.052;2022-12-18T01:57:02;99894.56;;;-6.21;100.00
65276;BME280;51875;49.994;14.052;2022-12-18T01:58:19;99892.78;;;-6.08;100.00
65276;BME280;51875;49.994;14.052;2022-12-18T01:59:39;99887.06;;;-6.04;100.00
65276;BME280;51875;49.994;14.052;2022-12-18T02:00:57;99899.28;;;-5.99;100.00
65276;BME280;51875;49.994;14.052;2022-12-18T02:02:13;99895.50;;;-6.05;100.00
65276;BME280;51875;49.994;14.052;2022-12-18T02:03:29;99896.81;;;-6.12;100.00
65276;BME280;51875;49.994;14.052;2022-12-18T02:04:45;99903.97;;;-6.20;100.00
65276;BME280;51875;49.994;14.052;2022-12-18T02:09:07;99888.38;;;-6.25;100.00
65276;BME280;51875;49.994;14.052;2022-12-18T02:13:20;99901.44;;;-5.91;100.00
65276;BME280;51875;49.994;14.052;2022-12-18T02:16:21;99907.66;;;-6.01;100.00
65276;BME280;51875;49.994;14.052;2022-12-18T02:17:59;99899.22;;;-6.00;100.00
65276;BME280;51875;49.994;14.052;2022-12-18T02:21:08;99907.41;;;-5.91;100.00
65276;BME280;51875;49.994;14.052;2022-12-18T02:24:24;99908.03;;;-5.67;100.00
65276;BME280;51875;49.994;14.052;2022-12-18T02:26:11;99902.81;;;-5.55;100.00
65276;BME280;51875;49.994;14.052;2022-12-18T02:27:30;99899.28;;;-5.57;100.00
65276;BME280;51875;49.994;14.052;2022-12-18T02:28:52;99899.75;;;-5.91;100.00
65276;BME280;51875;49.994;14.052;2022-12-18T02:30:10;99899.72;;;-5.77;100.00
65276;BME280;51875;49.994;14.052;2022-12-18T02:31:28;99897.69;;;-5.83;100.00
65276;BME280;51875;49.994;14.052;2022-12-18T02:32:51;99895.88;;;-5.99;100.00
65276;BME280;51875;49.994;14.052;2022-12-18T02:34:08;99909.88;;;-5.92;100.00
65276;BME280;51875;49.994;14.052;2022-12-18T02:35:26;99909.34;;;-6.02;100.00
65276;BME280;51875;49.994;14.052;2022-12-18T02:36:44;99915.13;;;-5.76;100.00
65276;BME280;51875;49.994;14.052;2022-12-18T02:38:03;99919.06;;;-5.81;100.00
65276;BME280;51875;49.994;14.052;2022-12-18T02:39:20;99911.22;;;-5.84;100.00
65276;BME280;51875;49.994;14.052;2022-12-18T02:40:38;99913.41;;;-5.90;100.00
65276;BME280;51875;49.994;14.052;2022-12-18T02:41:54;99920.25;;;-5.76;100.00
65276;BME280;51875;49.994;14.052;2022-12-18T02:43:13;99923.88;;;-6.28;100.00
65276;BME280;51875;49.994;14.052;2022-12-18T02:44:29;99921.34;;;-5.86;100.00
65276;BME280;51875;49.994;14.052;2022-12-18T02:45:50;99930.59;;;-6.01;100.00
65276;BME280;51875;49.994;14.052;2022-12-18T02:47:10;99924.88;;;-5.84;100.00
65276;BME280;51875;49.994;14.052;2022-12-18T02:48:34;99927.59;;;-5.81;100.00
65276;BME280;51875;49.994;14.052;2022-12-18T02:51:25;99925.88;;;-5.67;100.00
65276;BME280;51875;49.994;14.052;2022-12-18T02:53:10;99920.06;;;-5.50;100.00
65276;BME280;51875;49.994;14.052;2022-12-18T02:56:10;99917.31;;;-5.54;100.00
65276;BME280;51875;49.994;14.052;2022-12-18T02:57:39;99913.53;;;-5.45;100.00
65276;BME280;51875;49.994;14.052;2022-12-18T02:58:59;99919.81;;;-5.40;100.00
65276;BME280;51875;49.994;14.052;2022-12-18T03:00:19;99920.91;;;-5.21;100.00
65276;BME280;51875;49.994;14.052;2022-12-18T03:03:10;99915.53;;;-5.26;100.00
65276;BME280;51875;49.994;14.052;2022-12-18T03:05:56;99921.19;;;-5.17;100.00
65276;BME280;51875;49.994;14.052;2022-12-18T03:07:21;99913.69;;;-5.14;100.00
65276;BME280;51875;49.994;14.052;2022-12-18T03:08:42;99918.91;;;-5.12;100.00
65276;BME280;51875;49.994;14.052;2022-12-18T03:10:00;99924.06;;;-5.26;100.00
65276;BME280;51875;49.994;14.052;2022-12-18T03:11:16;99923.56;;;-5.20;100.00
65276;BME280;51875;49.994;14.052;2022-12-18T03:12:57;99927.78;;;-5.20;100.00
65276;BME280;51875;49.994;14.052;2022-12-18T03:14:15;99932.63;;;-5.10;100.00
65276;BME280;51875;49.994;14.052;2022-12-18T03:15:35;99924.34;;;-5.06;100.00
65276;BME280;51875;49.994;14.052;2022-12-18T03:16:54;99933.22;;;-5.29;100.00
65276;BME280;51875;49.994;14.052;2022-12-18T03:18:17;99928.97;;;-5.44;100.00
65276;BME280;51875;49.994;14.052;2022-12-18T03:19:35;99928.81;;;-5.32;100.00
65276;BME280;51875;49.994;14.052;2022-12-18T03:20:54;99930.66;;;-5.44;100.00
65276;BME280;51875;49.994;14.052;2022-12-18T03:22:12;99926.63;;;-5.26;100.00
65276;BME280;51875;49.994;14.052;2022-12-18T03:23:34;99927.53;;;-5.54;100.00
65276;BME280;51875;49.994;14.052;2022-12-18T03:24:50;99922.72;;;-5.34;100.00
65276;BME280;51875;49.994;14.052;2022-12-18T03:26:10;99921.41;;;-5.27;100.00
65276;BME280;51875;49.994;14.052;2022-12-18T03:27:27;99918.63;;;-5.17;100.00
65276;BME280;51875;49.994;14.052;2022-12-18T03:28:51;99921.19;;;-5.17;100.00
65276;BME280;51875;49.994;14.052;2022-12-18T03:30:09;99924.34;;;-5.06;100.00
65276;BME280;51875;49.994;14.052;2022-12-18T03:31:28;99928.56;;;-5.21;100.00
65276;BME280;51875;49.994;14.052;2022-12-18T03:32:58;99937.13;;;-5.49;100.00
65276;BME280;51875;49.994;14.052;2022-12-18T03:34:19;99932.31;;;-5.45;100.00
65276;BME280;51875;49.994;14.052;2022-12-18T03:35:39;99937.06;;;-5.36;100.00
65276;BME280;51875;49.994;14.052;2022-12-18T03:36:56;99933.22;;;-5.29;100.00
65276;BME280;51875;49.994;14.052;2022-12-18T03:38:12;99934.84;;;-5.45;100.00
65276;BME280;51875;49.994;14.052;2022-12-18T03:39:28;99939.47;;;-5.24;100.00
65276;BME280;51875;49.994;14.052;2022-12-18T03:41:19;99938.16;;;-5.32;100.00
65276;BME280;51875;49.994;14.052;2022-12-18T03:42:51;99939.56;;;-5.22;100.00
65276;BME280;51875;49.994;14.052;2022-12-18T03:48:31;99929.53;;;-5.34;100.00
65276;BME280;51875;49.994;14.052;2022-12-18T03:51:43;99938.59;;;-5.25;100.00
65276;BME280;51875;49.994;14.052;2022-12-18T03:54:49;99931.91;;;-5.37;100.00
65276;BME280;51875;49.994;14.052;2022-12-18T03:56:06;99933.59;;;-5.23;100.00
65276;BME280;51875;49.994;14.052;2022-12-18T03:57:26;99930.31;;;-5.35;100.00
65276;BME280;51875;49.994;14.052;2022-12-18T03:58:45;99936.75;;;-5.27;100.00
65276;BME280;51875;49.994;14.052;2022-12-18T04:00:11;99936.09;;;-5.38;100.00
65276;BME280;51875;49.994;14.052;2022-12-18T04:01:41;99941.53;;;-5.47;100.00
65276;BME280;51875;49.994;14.052;2022-12-18T04:03:00;99950.91;;;-5.32;100.00
65276;BME280;51875;49.994;14.052;2022-12-18T04:04:18;99942.81;;;-5.25;100.00
65276;BME280;51875;49.994;14.052;2022-12-18T04:05:35;99942.81;;;-5.25;100.00
65276;BME280;51875;49.994;14.052;2022-12-18T04:06:52;99945.75;;;-5.19;100.00
65276;BME280;51875;49.994;14.052;2022-12-18T04:08:08;99949.66;;;-5.39;100.00
65276;BME280;51875;49.994;14.052;2022-12-18T04:09:25;99943.53;;;-5.28;100.00
65276;BME280;51875;49.994;14.052;2022-12-18T04:10:41;99946.88;;;-5.29;100.00
65276;BME280;51875;49.994;14.052;2022-12-18T04:11:56;99948.53;;;-5.29;100.00
65276;BME280;51875;49.994;14.052;2022-12-18T04:13:12;99952.00;;;-5.29;100.00
65276;BME280;51875;49.994;14.052;2022-12-18T04:14:28;99955.78;;;-5.22;100.00
65276;BME280;51875;49.994;14.052;2022-12-18T04:15:43;99951.19;;;-5.28;100.00
65276;BME280;51875;49.994;14.052;2022-12-18T04:16:59;99947.16;;;-5.53;100.00
65276;BME280;51875;49.994;14.052;2022-12-18T04:18:14;99953.97;;;-5.38;100.00
65276;BME280;51875;49.994;14.052;2022-12-18T04:19:30;99952.84;;;-5.28;100.00
65276;BME280;51875;49.994;14.052;2022-12-18T04:20:46;99954.72;;;-5.26;100.00
65276;BME280;51875;49.994;14.052;2022-12-18T04:22:01;99950.28;;;-5.28;100.00
65276;BME280;51875;49.994;14.052;2022-12-18T04:23:17;99955.84;;;-5.20;100.00
65276;BME280;51875;49.994;14.052;2022-12-18T04:24:33;99959.19;;;-5.21;100.00
65276;BME280;51875;49.994;14.052;2022-12-18T04:25:48;99952.72;;;-5.16;100.00
65276;BME280;51875;49.994;14.052;2022-12-18T04:27:04;99961.13;;;-5.32;100.00
65276;BME280;51875;49.994;14.052;2022-12-18T04:28:20;99954.03;;;-5.23;100.00
65276;BME280;51875;49.994;14.052;2022-12-18T04:29:36;99953.91;;;-5.25;100.00
65276;BME280;51875;49.994;14.052;2022-12-18T04:30:51;99958.94;;;-5.26;100.00
65276;BME280;51875;49.994;14.052;2022-12-18T04:32:08;99956.69;;;-5.35;100.00
65276;BME280;51875;49.994;14.052;2022-12-18T04:33:24;99968.97;;;-5.29;100.00
65276;BME280;51875;49.994;14.052;2022-12-18T04:34:39;99960.56;;;-5.42;100.00
65276;BME280;51875;49.994;14.052;2022-12-18T04:35:55;99961.31;;;-5.29;100.00
65276;BME280;51875;49.994;14.052;2022-12-18T04:37:10;99967.56;;;-5.53;100.00
65276;BME280;51875;49.994;14.052;2022-12-18T04:38:26;99970.09;;;-5.39;100.00
65276;BME280;51875;49.994;14.052;2022-12-18T04:39:42;99970.44;;;-5.33;100.00
65276;BME280;51875;49.994;14.052;2022-12-18T04:40:57;99974.97;;;-5.29;100.00
65276;BME280;51875;49.994;14.052;2022-12-18T04:42:13;99973.28;;;-5.28;100.00
65276;BME280;51875;49.994;14.052;2022-12-18T04:43:28;99976.84;;;-5.40;100.00
65276;BME280;51875;49.994;14.052;2022-12-18T04:44:44;99971.84;;;-5.38;100.00
65276;BME280;51875;49.994;14.052;2022-12-18T04:46:04;99978.03;;;-5.19;100.00
65276;BME280;51875;49.994;14.052;2022-12-18T04:47:20;99981.72;;;-5.29;100.00
65276;BME280;51875;49.994;14.052;2022-12-18T04:48:36;99976.78;;;-5.26;100.00
65276;BME280;51875;49.994;14.052;2022-12-18T04:49:52;99975.47;;;-5.76;100.00
65276;BME280;51875;49.994;14.052;2022-12-18T04:51:07;99977.63;;;-5.69;100.00
65276;BME280;51875;49.994;14.052;2022-12-18T04:52:23;99978.28;;;-5.58;100.00
65276;BME280;51875;49.994;14.052;2022-12-18T04:53:38;99982.34;;;-5.33;100.00
65276;BME280;51875;49.994;14.052;2022-12-18T04:54:54;99976.28;;;-5.20;100.00
65276;BME280;51875;49.994;14.052;2022-12-18T04:56:12;99974.19;;;-5.13;100.00
65276;BME280;51875;49.994;14.052;2022-12-18T04:57:28;99972.25;;;-5.17;100.00
65276;BME280;51875;49.994;14.052;2022-12-18T04:58:44;99974.47;;;-5.08;100.00
65276;BME280;51875;49.994;14.052;2022-12-18T05:00:00;99974.69;;;-5.18;100.00
65276;BME280;51875;49.994;14.052;2022-12-18T05:01:17;99975.03;;;-5.27;100.00
65276;BME280;51875;49.994;14.052;2022-12-18T05:02:32;99978.50;;;-5.27;100.00
65276;BME280;51875;49.994;14.052;2022-12-18T05:03:48;99973.50;;;-5.39;100.00
65276;BME280;51875;49.994;14.052;2022-12-18T05:05:04;99977.78;;;-5.53;100.00
65276;BME280;51875;49.994;14.052;2022-12-18T05:06:20;99973.13;;;-5.45;100.00
65276;BME280;51875;49.994;14.052;2022-12-18T05:07:35;99977.28;;;-5.47;100.00
65276;BME280;51875;49.994;14.052;2022-12-18T05:08:51;99980.47;;;-5.36;100.00
65276;BME280;51875;49.994;14.052;2022-12-18T05:10:07;99978.09;;;-5.61;100.00
65276;BME280;51875;49.994;14.052;2022-12-18T05:11:23;99980.63;;;-5.48;100.00
65276;BME280;51875;49.994;14.052;2022-12-18T05:12:39;99984.97;;;-5.32;100.00
65276;BME280;51875;49.994;14.052;2022-12-18T05:14:13;99989.84;;;-5.21;100.00
65276;BME280;51875;49.994;14.052;2022-12-18T05:15:30;99994.63;;;-5.13;100.00
65276;BME280;51875;49.994;14.052;2022-12-18T05:16:46;99998.88;;;-5.55;100.00
65276;BME280;51875;49.994;14.052;2022-12-18T05:18:03;99995.94;;;-5.48;100.00
65276;BME280;51875;49.994;14.052;2022-12-18T05:19:19;99997.69;;;-5.47;100.00
65276;BME280;51875;49.994;14.052;2022-12-18T05:20:35;99993.41;;;-5.33;100.00
65276;BME280;51875;49.994;14.052;2022-12-18T05:21:50;99996.25;;;-5.28;100.00
65276;BME280;51875;49.994;14.052;2022-12-18T05:23:06;100003.41;;;-5.22;100.00
65276;BME280;51875;49.994;14.052;2022-12-18T05:24:21;99998.13;;;-5.26;100.00
65276;BME280;51875;49.994;14.052;2022-12-18T05:25:37;100004.06;;;-5.40;100.00
65276;BME280;51875;49.994;14.052;2022-12-18T05:26:52;100012.28;;;-5.31;100.00
65276;BME280;51875;49.994;14.052;2022-12-18T05:28:08;100013.94;;;-5.31;100.00
65276;BME280;51875;49.994;14.052;2022-12-18T05:29:23;100013.94;;;-5.31;100.00
65276;BME280;51875;49.994;14.052;2022-12-18T05:30:39;100015.03;;;-5.28;100.00
65276;BME280;51875;49.994;14.052;2022-12-18T05:31:57;100008.38;;;-5.39;100.00
65276;BME280;51875;49.994;14.052;2022-12-18T05:33:13;99999.25;;;-5.35;100.00
65276;BME280;51875;49.994;14.052;2022-12-18T05:34:29;99997.38;;;-5.38;100.00
65276;BME280;51875;49.994;14.052;2022-12-18T05:35:49;100002.53;;;-5.23;100.00
65276;BME280;51875;49.994;14.052;2022-12-18T05:37:05;100002.03;;;-5.59;100.00
65276;BME280;51875;49.994;14.052;2022-12-18T05:38:22;100001.91;;;-5.47;100.00
65276;BME280;51875;49.994;14.052;2022-12-18T05:39:37;100004.56;;;-5.46;100.00
65276;BME280;51875;49.994;14.052;2022-12-18T05:40:53;100006.16;;;-5.61;100.00
65276;BME280;51875;49.994;14.052;2022-12-18T05:42:09;100003.44;;;-5.64;100.00
65276;BME280;51875;49.994;14.052;2022-12-18T05:43:25;100006.34;;;-5.58;100.00
65276;BME280;51875;49.994;14.052;2022-12-18T05:44:41;100003.44;;;-5.64;100.00
65276;BME280;51875;49.994;14.052;2022-12-18T05:45:57;99999.63;;;-5.85;100.00
65276;BME280;51875;49.994;14.052;2022-12-18T05:47:12;100004.13;;;-5.67;100.00
65276;BME280;51875;49.994;14.052;2022-12-18T05:48:28;99999.88;;;-5.67;100.00
65276;BME280;51875;49.994;14.052;2022-12-18T05:49:43;100005.50;;;-5.72;100.00
65276;BME280;51875;49.994;14.052;2022-12-18T05:51:07;100005.50;;;-5.72;100.00
65276;BME280;51875;49.994;14.052;2022-12-18T05:52:23;100007.06;;;-5.88;100.00
65276;BME280;51875;49.994;14.052;2022-12-18T05:53:39;100010.53;;;-6.01;100.00
65276;BME280;51875;49.994;14.052;2022-12-18T05:54:54;100013.25;;;-5.71;100.00
65276;BME280;51875;49.994;14.052;2022-12-18T05:56:13;100020.66;;;-6.02;100.00
65276;BME280;51875;49.994;14.052;2022-12-18T05:57:29;100020.75;;;-6.14;100.00
65276;BME280;51875;49.994;14.052;2022-12-18T05:58:45;100023.78;;;-6.20;100.00
65276;BME280;51875;49.994;14.052;2022-12-18T06:00:02;100025.19;;;-6.12;100.00
65276;BME280;51875;49.994;14.052;2022-12-18T06:01:21;100025.75;;;-6.02;100.00
65276;BME280;51875;49.994;14.052;2022-12-18T06:02:37;100019.31;;;-5.82;100.00
65276;BME280;51875;49.994;14.052;2022-12-18T06:03:52;100031.59;;;-5.90;100.00
65276;BME280;51875;49.994;14.052;2022-12-18T06:05:08;100033.56;;;-5.72;100.00
65276;BME280;51875;49.994;14.052;2022-12-18T06:06:26;100033.34;;;-5.89;100.00
65276;BME280;51875;49.994;14.052;2022-12-18T06:07:42;100029.84;;;-5.91;100.00
65276;BME280;51875;49.994;14.052;2022-12-18T06:08:58;100036.88;;;-5.73;100.00
65276;BME280;51875;49.994;14.052;2022-12-18T06:10:13;100033.66;;;-5.71;100.00
65276;BME280;51875;49.994;14.052;2022-12-18T06:11:29;100040.81;;;-5.92;100.00
65276;BME280;51875;49.994;14.052;2022-12-18T06:12:44;100037.78;;;-6.00;100.00
65276;BME280;51875;49.994;14.052;2022-12-18T06:14:01;100030.25;;;-5.85;100.00
65276;BME280;51875;49.994;14.052;2022-12-18T06:15:16;100042.09;;;-5.85;100.00
65276;BME280;51875;49.994;14.052;2022-12-18T06:16:32;100039.03;;;-5.66;100.00
65276;BME280;51875;49.994;14.052;2022-12-18T06:17:48;100033.75;;;-5.56;100.00
65276;BME280;51875;49.994;14.052;2022-12-18T06:19:05;100038.25;;;-5.65;100.00
65276;BME280;51875;49.994;14.052;2022-12-18T06:20:20;100041.31;;;-5.71;100.00
65276;BME280;51875;49.994;14.052;2022-12-18T06:21:36;100042.88;;;-5.73;100.00
65276;BME280;51875;49.994;14.052;2022-12-18T06:22:52;100044.47;;;-5.75;100.00
65276;BME280;51875;49.994;14.052;2022-12-18T06:24:07;100048.16;;;-5.56;100.00
65276;BME280;51875;49.994;14.052;2022-12-18T06:25:23;100049.44;;;-5.90;100.00
65276;BME280;51875;49.994;14.052;2022-12-18T06:26:39;100039.53;;;-5.72;100.00
65276;BME280;51875;49.994;14.052;2022-12-18T06:27:54;100045.31;;;-5.61;100.00
65276;BME280;51875;49.994;14.052;2022-12-18T06:29:10;100049.16;;;-5.68;100.00
65276;BME280;51875;49.994;14.052;2022-12-18T06:30:25;100052.00;;;-5.63;100.00
65276;BME280;51875;49.994;14.052;2022-12-18T06:31:41;100054.97;;;-5.70;100.00
65276;BME280;51875;49.994;14.052;2022-12-18T06:32:56;100062.13;;;-5.78;100.00
65276;BME280;51875;49.994;14.052;2022-12-18T06:34:12;100056.91;;;-5.66;100.00
65276;BME280;51875;49.994;14.052;2022-12-18T06:35:28;100056.53;;;-5.72;100.00
65276;BME280;51875;49.994;14.052;2022-12-18T06:36:43;100070.28;;;-5.84;100.00
65276;BME280;51875;49.994;14.052;2022-12-18T06:38:01;100065.84;;;-5.73;100.00
65276;BME280;51875;49.994;14.052;2022-12-18T06:39:16;100067.50;;;-5.60;100.00
65276;BME280;51875;49.994;14.052;2022-12-18T06:40:32;100065.13;;;-5.43;100.00
65276;BME280;51875;49.994;14.052;2022-12-18T06:41:48;100066.31;;;-5.65;100.00
65276;BME280;51875;49.994;14.052;2022-12-18T06:43:04;100063.66;;;-5.53;100.00
65276;BME280;51875;49.994;14.052;2022-12-18T06:44:22;100070.03;;;-5.73;100.00
65276;BME280;51875;49.994;14.052;2022-12-18T06:45:37;100069.53;;;-5.54;100.00
65276;BME280;51875;49.994;14.052;2022-12-18T06:46:53;100072.59;;;-5.60;100.00
65276;BME280;51875;49.994;14.052;2022-12-18T06:48:08;100069.06;;;-5.62;100.00
65276;BME280;51875;49.994;14.052;2022-12-18T06:49:24;100080.47;;;-5.57;100.00
65276;BME280;51875;49.994;14.052;2022-12-18T06:50:42;100085.75;;;-5.54;100.00
65276;BME280;51875;49.994;14.052;2022-12-18T06:51:58;100090.56;;;-5.58;100.00
65276;BME280;51875;49.994;14.052;2022-12-18T06:53:13;100094.09;;;-5.56;100.00
65276;BME280;51875;49.994;14.052;2022-12-18T06:54:29;100091.06;;;-5.64;100.00
65276;BME280;51875;49.994;14.052;2022-12-18T06:55:44;100091.25;;;-5.74;100.00
65276;BME280;51875;49.994;14.052;2022-12-18T06:57:00;100094.00;;;-5.71;100.00
65276;BME280;51875;49.994;14.052;2022-12-18T06:58:16;100087.91;;;-5.60;100.00
65276;BME280;51875;49.994;14.052;2022-12-18T06:59:31;100083.69;;;-5.59;100.00
65276;BME280;51875;49.994;14.052;2022-12-18T07:00:47;100092.19;;;-5.32;100.00
65276;BME280;51875;49.994;14.052;2022-12-18T07:02:02;100094.97;;;-5.29;100.00
65276;BME280;51875;49.994;14.052;2022-12-18T07:03:18;100095.34;;;-5.36;100.00
65276;BME280;51875;49.994;14.052;2022-12-18T07:04:33;100102.88;;;-5.24;100.00
65276;BME280;51875;49.994;14.052;2022-12-18T07:05:49;100096.38;;;-5.05;100.00
65276;BME280;51875;49.994;14.052;2022-12-18T07:07:05;100095.69;;;-5.03;100.00
65276;BME280;51875;49.994;14.052;2022-12-18T07:08:20;100098.28;;;-5.16;100.00